Monroe City, Texas
Current Conditions -  °F | °C
As of 8:55 AM on Wednesday 22 Oct 2014 (Local Time) from KBMT Reporting Station
Clear Clear  
Wind Chill: 65°   Ceiling: Unl
Heat Index: 65°   Visibility: 10mi
Dew Point: 61°   Wind: 5mph
Humidity: 85%   Direction: 30°NNE
Pressure: 30.11"   Gusts: NA
Location:  29.7107°N, 94.5434°W
Report Text: KBMT 221355Z AUTO 03004KT 10SM CLR 19/16 A3011 RMK AO2 T01850159
Loading
Personal Weather Stations






























Interactive Weather Map
Tropical Storm Tracking
New forecast layout! Learn more

10-Day Weather Forecast

Advertisements
Track Severe Weather on mobile